Evan, Minnesota
Current Conditions -  °F | °C
As of 11:53 AM on Friday 19 Dec 2014 (Local Time) from KRWF Reporting Station
Haze Haze  
Wind Chill: 23°   Ceiling: 1000
Heat Index: 32°   Visibility: 3mi
Dew Point: 29°   Wind: 12mph
Humidity: 88%   Direction: 170°S
Pressure: 30.15"   Gusts: NA
Location:  44.3713°N, 94.9134°W
Report Text: KRWF 191753Z AUTO 17010KT 3SM BR OVC010 00/M02 A3015 RMK AO2 CIG 008V015 SLP224 T00001017 10000 21033 58009
Loading
Personal Weather Stations






























Interactive Weather Map New forecast layout! Learn more

10-Day Weather Forecast

Advertisements
Track Severe Weather on mobile